sensor_id;sensor_type;location;lat;lon;timestamp;P1;durP1;ratioP1;P2;durP2;ratioP2
2564;SDS011;1292;48.020;7.822;2023-07-29T05:47:43;2.30;;;2.10;;
2564;SDS011;1292;48.020;7.822;2023-07-29T05:50:09;1.77;;;1.67;;
2564;SDS011;1292;48.020;7.822;2023-07-29T05:52:36;1.77;;;1.67;;
2564;SDS011;1292;48.020;7.822;2023-07-29T05:55:03;2.20;;;2.10;;
2564;SDS011;1292;48.020;7.822;2023-07-29T05:57:31;2.57;;;2.37;;
2564;SDS011;1292;48.020;7.822;2023-07-29T05:59:58;1.83;;;1.73;;
2564;SDS011;1292;48.020;7.822;2023-07-29T06:02:26;1.80;;;1.70;;
2564;SDS011;1292;48.020;7.822;2023-07-29T06:04:52;3.00;;;2.03;;
2564;SDS011;1292;48.020;7.822;2023-07-29T06:07:19;5.40;;;2.17;;
2564;SDS011;1292;48.020;7.822;2023-07-29T06:09:46;4.07;;;2.10;;
2564;SDS011;1292;48.020;7.822;2023-07-29T06:12:13;3.27;;;2.27;;
2564;SDS011;1292;48.020;7.822;2023-07-29T06:14:40;2.00;;;1.90;;
2564;SDS011;1292;48.020;7.822;2023-07-29T06:17:07;3.63;;;1.70;;
2564;SDS011;1292;48.020;7.822;2023-07-29T06:19:37;2.93;;;1.43;;
2564;SDS011;1292;48.020;7.822;2023-07-29T06:22:04;2.30;;;2.10;;
2564;SDS011;1292;48.020;7.822;2023-07-29T06:24:32;2.50;;;2.30;;
2564;SDS011;1292;48.020;7.822;2023-07-29T06:26:59;2.03;;;1.80;;
2564;SDS011;1292;48.020;7.822;2023-07-29T06:29:25;2.50;;;1.90;;
2564;SDS011;1292;48.020;7.822;2023-07-29T06:31:52;5.00;;;2.10;;
2564;SDS011;1292;48.020;7.822;2023-07-29T06:34:19;2.00;;;1.90;;
2564;SDS011;1292;48.020;7.822;2023-07-29T06:36:48;3.00;;;2.17;;
2564;SDS011;1292;48.020;7.822;2023-07-29T06:39:15;2.93;;;2.00;;
2564;SDS011;1292;48.020;7.822;2023-07-29T06:41:42;2.60;;;2.40;;
2564;SDS011;1292;48.020;7.822;2023-07-29T06:44:09;9.47;;;2.70;;
2564;SDS011;1292;48.020;7.822;2023-07-29T06:46:36;4.00;;;2.87;;
2564;SDS011;1292;48.020;7.822;2023-07-29T06:49:03;3.07;;;1.80;;
2564;SDS011;1292;48.020;7.822;2023-07-29T06:51:31;2.60;;;2.40;;
2564;SDS011;1292;48.020;7.822;2023-07-29T06:54:01;1.87;;;1.77;;
2564;SDS011;1292;48.020;7.822;2023-07-29T06:56:28;1.87;;;1.77;;
2564;SDS011;1292;48.020;7.822;2023-07-29T06:58:55;1.87;;;1.77;;
2564;SDS011;1292;48.020;7.822;2023-07-29T07:01:22;2.07;;;1.97;;
2564;SDS011;1292;48.020;7.822;2023-07-29T07:03:49;1.67;;;1.57;;
2564;SDS011;1292;48.020;7.822;2023-07-29T07:06:19;1.77;;;1.43;;
2564;SDS011;1292;48.020;7.822;2023-07-29T07:08:46;5.03;;;3.17;;
2564;SDS011;1292;48.020;7.822;2023-07-29T07:11:15;2.50;;;2.30;;
2564;SDS011;1292;48.020;7.822;2023-07-29T07:13:41;2.93;;;2.37;;
2564;SDS011;1292;48.020;7.822;2023-07-29T07:16:08;3.03;;;2.83;;
2564;SDS011;1292;48.020;7.822;2023-07-29T07:18:35;4.53;;;2.30;;
2564;SDS011;1292;48.020;7.822;2023-07-29T07:21:02;1.90;;;1.80;;
2564;SDS011;1292;48.020;7.822;2023-07-29T07:23:29;2.83;;;2.53;;
2564;SDS011;1292;48.020;7.822;2023-07-29T07:25:56;3.10;;;2.47;;
2564;SDS011;1292;48.020;7.822;2023-07-29T07:28:24;2.97;;;2.00;;
2564;SDS011;1292;48.020;7.822;2023-07-29T07:30:51;2.60;;;2.40;;
2564;SDS011;1292;48.020;7.822;2023-07-29T07:33:17;2.40;;;2.20;;
2564;SDS011;1292;48.020;7.822;2023-07-29T07:35:44;3.30;;;2.43;;
2564;SDS011;1292;48.020;7.822;2023-07-29T07:38:14;3.73;;;2.33;;
2564;SDS011;1292;48.020;7.822;2023-07-29T07:40:41;4.57;;;2.20;;
2564;SDS011;1292;48.020;7.822;2023-07-29T07:43:08;4.37;;;2.17;;
2564;SDS011;1292;48.020;7.822;2023-07-29T07:45:36;3.00;;;2.00;;
2564;SDS011;1292;48.020;7.822;2023-07-29T07:48:03;1.97;;;1.87;;
2564;SDS011;1292;48.020;7.822;2023-07-29T07:50:30;1.87;;;1.70;;
2564;SDS011;1292;48.020;7.822;2023-07-29T07:52:57;2.47;;;1.83;;
2564;SDS011;1292;48.020;7.822;2023-07-29T07:55:24;2.27;;;2.00;;
2564;SDS011;1292;48.020;7.822;2023-07-29T07:57:51;1.97;;;1.87;;
2564;SDS011;1292;48.020;7.822;2023-07-29T08:00:18;2.17;;;1.93;;
2564;SDS011;1292;48.020;7.822;2023-07-29T08:02:46;2.90;;;1.90;;
2564;SDS011;1292;48.020;7.822;2023-07-29T08:05:13;2.80;;;2.10;;
2564;SDS011;1292;48.020;7.822;2023-07-29T08:07:40;1.43;;;1.33;;
2564;SDS011;1292;48.020;7.822;2023-07-29T08:10:07;2.37;;;2.17;;
2564;SDS011;1292;48.020;7.822;2023-07-29T08:12:34;2.07;;;1.97;;
2564;SDS011;1292;48.020;7.822;2023-07-29T08:15:01;3.13;;;1.90;;
2564;SDS011;1292;48.020;7.822;2023-07-29T08:17:28;2.30;;;2.10;;
2564;SDS011;1292;48.020;7.822;2023-07-29T08:19:56;2.33;;;2.13;;
2564;SDS011;1292;48.020;7.822;2023-07-29T08:22:23;2.07;;;1.87;;
2564;SDS011;1292;48.020;7.822;2023-07-29T08:24:49;2.07;;;1.80;;
2564;SDS011;1292;48.020;7.822;2023-07-29T08:27:17;2.60;;;2.00;;
2564;SDS011;1292;48.020;7.822;2023-07-29T08:29:44;3.10;;;2.20;;
2564;SDS011;1292;48.020;7.822;2023-07-29T08:32:11;1.97;;;1.87;;
2564;SDS011;1292;48.020;7.822;2023-07-29T08:34:37;3.10;;;2.07;;
2564;SDS011;1292;48.020;7.822;2023-07-29T08:37:06;2.43;;;1.93;;
2564;SDS011;1292;48.020;7.822;2023-07-29T08:39:33;3.73;;;2.37;;
2564;SDS011;1292;48.020;7.822;2023-07-29T08:42:00;2.33;;;2.10;;
2564;SDS011;1292;48.020;7.822;2023-07-29T08:44:31;3.00;;;1.87;;
2564;SDS011;1292;48.020;7.822;2023-07-29T08:47:02;2.40;;;2.20;;
2564;SDS011;1292;48.020;7.822;2023-07-29T08:49:30;2.83;;;2.33;;
2564;SDS011;1292;48.020;7.822;2023-07-29T08:51:58;3.23;;;1.90;;
2564;SDS011;1292;48.020;7.822;2023-07-29T08:54:27;2.17;;;1.90;;
2564;SDS011;1292;48.020;7.822;2023-07-29T08:56:54;1.90;;;1.80;;
2564;SDS011;1292;48.020;7.822;2023-07-29T08:59:21;2.00;;;1.90;;
2564;SDS011;1292;48.020;7.822;2023-07-29T09:01:48;2.30;;;2.10;;
2564;SDS011;1292;48.020;7.822;2023-07-29T09:04:15;1.83;;;1.73;;
2564;SDS011;1292;48.020;7.822;2023-07-29T09:06:43;2.93;;;2.70;;
2564;SDS011;1292;48.020;7.822;2023-07-29T09:09:11;3.20;;;1.87;;
2564;SDS011;1292;48.020;7.822;2023-07-29T09:11:39;1.93;;;1.83;;
2564;SDS011;1292;48.020;7.822;2023-07-29T09:14:06;3.10;;;2.00;;
2564;SDS011;1292;48.020;7.822;2023-07-29T09:16:33;1.73;;;1.63;;
2564;SDS011;1292;48.020;7.822;2023-07-29T09:19:00;5.00;;;1.77;;
2564;SDS011;1292;48.020;7.822;2023-07-29T09:21:28;3.00;;;2.10;;
2564;SDS011;1292;48.020;7.822;2023-07-29T09:23:56;2.50;;;2.30;;
2564;SDS011;1292;48.020;7.822;2023-07-29T09:26:23;3.93;;;1.93;;
2564;SDS011;1292;48.020;7.822;2023-07-29T09:28:53;2.40;;;2.20;;
2564;SDS011;1292;48.020;7.822;2023-07-29T09:31:21;2.00;;;1.83;;
2564;SDS011;1292;48.020;7.822;2023-07-29T09:33:49;2.00;;;1.90;;
2564;SDS011;1292;48.020;7.822;2023-07-29T09:36:21;2.93;;;2.73;;
2564;SDS011;1292;48.020;7.822;2023-07-29T09:38:50;3.17;;;2.10;;
2564;SDS011;1292;48.020;7.822;2023-07-29T09:41:19;2.70;;;2.10;;
2564;SDS011;1292;48.020;7.822;2023-07-29T09:43:51;2.77;;;2.37;;
2564;SDS011;1292;48.020;7.822;2023-07-29T09:46:24;2.70;;;2.50;;
2564;SDS011;1292;48.020;7.822;2023-07-29T09:48:52;3.10;;;2.80;;
2564;SDS011;1292;48.020;7.822;2023-07-29T09:51:20;3.93;;;2.80;;
2564;SDS011;1292;48.020;7.822;2023-07-29T09:53:48;2.30;;;2.20;;
2564;SDS011;1292;48.020;7.822;2023-07-29T09:56:17;2.73;;;2.53;;
2564;SDS011;1292;48.020;7.822;2023-07-29T09:58:49;5.60;;;2.33;;
2564;SDS011;1292;48.020;7.822;2023-07-29T10:01:18;2.40;;;2.20;;
2564;SDS011;1292;48.020;7.822;2023-07-29T10:03:45;2.60;;;2.40;;
2564;SDS011;1292;48.020;7.822;2023-07-29T10:06:12;3.37;;;3.13;;
2564;SDS011;1292;48.020;7.822;2023-07-29T10:08:41;3.10;;;2.80;;
2564;SDS011;1292;48.020;7.822;2023-07-29T10:11:09;2.50;;;2.30;;
2564;SDS011;1292;48.020;7.822;2023-07-29T10:13:38;2.93;;;2.73;;
2564;SDS011;1292;48.020;7.822;2023-07-29T10:16:05;4.80;;;2.20;;
2564;SDS011;1292;48.020;7.822;2023-07-29T10:18:33;2.20;;;2.00;;
2564;SDS011;1292;48.020;7.822;2023-07-29T10:21:01;5.20;;;3.10;;
2564;SDS011;1292;48.020;7.822;2023-07-29T10:23:31;2.43;;;2.23;;
2564;SDS011;1292;48.020;7.822;2023-07-29T10:26:04;3.83;;;2.50;;
2564;SDS011;1292;48.020;7.822;2023-07-29T10:28:32;2.03;;;1.83;;
2564;SDS011;1292;48.020;7.822;2023-07-29T10:31:00;2.57;;;2.37;;
2564;SDS011;1292;48.020;7.822;2023-07-29T10:33:29;3.10;;;2.70;;
2564;SDS011;1292;48.020;7.822;2023-07-29T10:36:00;2.60;;;2.10;;
2564;SDS011;1292;48.020;7.822;2023-07-29T10:38:28;2.53;;;2.30;;
2564;SDS011;1292;48.020;7.822;2023-07-29T10:40:56;2.63;;;2.43;;
2564;SDS011;1292;48.020;7.822;2023-07-29T10:43:25;3.00;;;2.10;;
2564;SDS011;1292;48.020;7.822;2023-07-29T10:45:53;2.70;;;2.47;;
2564;SDS011;1292;48.020;7.822;2023-07-29T10:48:40;2.50;;;2.30;;
2564;SDS011;1292;48.020;7.822;2023-07-29T10:51:28;2.27;;;2.10;;
2564;SDS011;1292;48.020;7.822;2023-07-29T10:53:58;2.37;;;2.17;;
2564;SDS011;1292;48.020;7.822;2023-07-29T10:56:26;4.10;;;2.47;;
2564;SDS011;1292;48.020;7.822;2023-07-29T10:58:55;2.10;;;1.90;;
2564;SDS011;1292;48.020;7.822;2023-07-29T11:01:26;7.83;;;2.40;;
2564;SDS011;1292;48.020;7.822;2023-07-29T11:09:55;2.13;;;1.97;;
2564;SDS011;1292;48.020;7.822;2023-07-29T11:12:44;2.20;;;2.00;;
2564;SDS011;1292;48.020;7.822;2023-07-29T11:15:16;2.07;;;1.87;;
2564;SDS011;1292;48.020;7.822;2023-07-29T11:17:48;2.53;;;1.80;;
2564;SDS011;1292;48.020;7.822;2023-07-29T11:20:16;3.10;;;2.50;;
2564;SDS011;1292;48.020;7.822;2023-07-29T11:22:48;5.53;;;1.90;;
2564;SDS011;1292;48.020;7.822;2023-07-29T11:25:15;2.53;;;2.00;;
2564;SDS011;1292;48.020;7.822;2023-07-29T11:27:44;6.63;;;2.47;;
2564;SDS011;1292;48.020;7.822;2023-07-29T11:30:12;2.23;;;1.87;;
2564;SDS011;1292;48.020;7.822;2023-07-29T11:32:40;2.33;;;1.70;;
2564;SDS011;1292;48.020;7.822;2023-07-29T11:35:09;1.98;;;1.80;;
2564;SDS011;1292;48.020;7.822;2023-07-29T11:37:37;2.33;;;2.13;;
2564;SDS011;1292;48.020;7.822;2023-07-29T11:40:07;2.50;;;2.07;;
2564;SDS011;1292;48.020;7.822;2023-07-29T11:42:36;6.20;;;2.03;;
2564;SDS011;1292;48.020;7.822;2023-07-29T11:45:04;2.87;;;1.97;;
2564;SDS011;1292;48.020;7.822;2023-07-29T11:47:33;3.17;;;1.90;;
2564;SDS011;1292;48.020;7.822;2023-07-29T11:50:02;2.10;;;1.93;;
2564;SDS011;1292;48.020;7.822;2023-07-29T11:52:31;3.07;;;2.17;;
2564;SDS011;1292;48.020;7.822;2023-07-29T11:54:58;2.37;;;1.83;;
2564;SDS011;1292;48.020;7.822;2023-07-29T11:57:29;5.00;;;2.20;;
2564;SDS011;1292;48.020;7.822;2023-07-29T11:59:56;2.43;;;2.23;;
2564;SDS011;1292;48.020;7.822;2023-07-29T12:02:23;1.60;;;1.50;;
2564;SDS011;1292;48.020;7.822;2023-07-29T12:04:51;1.77;;;1.67;;
2564;SDS011;1292;48.020;7.822;2023-07-29T12:07:18;2.33;;;1.93;;
2564;SDS011;1292;48.020;7.822;2023-07-29T12:09:46;1.60;;;1.47;;
2564;SDS011;1292;48.020;7.822;2023-07-29T12:12:13;2.00;;;1.80;;
2564;SDS011;1292;48.020;7.822;2023-07-29T12:14:44;2.20;;;1.83;;
2564;SDS011;1292;48.020;7.822;2023-07-29T12:17:12;2.40;;;2.20;;
2564;SDS011;1292;48.020;7.822;2023-07-29T12:19:40;2.07;;;1.87;;
2564;SDS011;1292;48.020;7.822;2023-07-29T12:22:08;2.63;;;2.13;;
2564;SDS011;1292;48.020;7.822;2023-07-29T12:24:36;1.87;;;1.77;;
2564;SDS011;1292;48.020;7.822;2023-07-29T12:27:04;1.87;;;1.77;;
2564;SDS011;1292;48.020;7.822;2023-07-29T12:29:39;2.00;;;1.90;;
2564;SDS011;1292;48.020;7.822;2023-07-29T12:32:09;1.70;;;1.60;;
2564;SDS011;1292;48.020;7.822;2023-07-29T12:34:36;1.60;;;1.50;;
2564;SDS011;1292;48.020;7.822;2023-07-29T12:37:05;2.73;;;2.43;;
2564;SDS011;1292;48.020;7.822;2023-07-29T12:39:33;4.90;;;1.67;;
2564;SDS011;1292;48.020;7.822;2023-07-29T12:42:01;1.77;;;1.67;;
2564;SDS011;1292;48.020;7.822;2023-07-29T12:44:30;2.57;;;2.10;;
2564;SDS011;1292;48.020;7.822;2023-07-29T12:46:57;4.70;;;2.10;;
2564;SDS011;1292;48.020;7.822;2023-07-29T12:49:26;2.20;;;2.00;;
2564;SDS011;1292;48.020;7.822;2023-07-29T12:51:53;1.87;;;1.77;;
2564;SDS011;1292;48.020;7.822;2023-07-29T12:54:20;2.33;;;1.90;;
2564;SDS011;1292;48.020;7.822;2023-07-29T12:56:48;2.70;;;2.10;;
2564;SDS011;1292;48.020;7.822;2023-07-29T12:59:16;2.97;;;1.60;;
2564;SDS011;1292;48.020;7.822;2023-07-29T13:01:43;2.63;;;1.57;;
2564;SDS011;1292;48.020;7.822;2023-07-29T13:04:10;2.60;;;2.00;;
2564;SDS011;1292;48.020;7.822;2023-07-29T13:06:38;2.00;;;1.80;;
2564;SDS011;1292;48.020;7.822;2023-07-29T13:09:05;1.90;;;1.80;;
2564;SDS011;1292;48.020;7.822;2023-07-29T13:11:32;1.77;;;1.67;;
2564;SDS011;1292;48.020;7.822;2023-07-29T13:13:59;2.60;;;1.77;;
2564;SDS011;1292;48.020;7.822;2023-07-29T13:16:26;2.10;;;2.00;;
2564;SDS011;1292;48.020;7.822;2023-07-29T13:18:53;1.90;;;1.80;;
2564;SDS011;1292;48.020;7.822;2023-07-29T13:21:20;1.70;;;1.60;;
2564;SDS011;1292;48.020;7.822;2023-07-29T13:23:48;3.37;;;2.30;;
2564;SDS011;1292;48.020;7.822;2023-07-29T13:26:15;1.93;;;1.83;;
2564;SDS011;1292;48.020;7.822;2023-07-29T13:28:42;1.63;;;1.53;;
2564;SDS011;1292;48.020;7.822;2023-07-29T13:31:09;3.07;;;1.90;;
2564;SDS011;1292;48.020;7.822;2023-07-29T13:33:36;2.70;;;1.60;;
2564;SDS011;1292;48.020;7.822;2023-07-29T13:36:03;2.93;;;1.67;;
2564;SDS011;1292;48.020;7.822;2023-07-29T13:38:33;1.80;;;1.70;;
2564;SDS011;1292;48.020;7.822;2023-07-29T13:41:01;1.90;;;1.80;;
2564;SDS011;1292;48.020;7.822;2023-07-29T13:43:28;2.20;;;2.00;;
2564;SDS011;1292;48.020;7.822;2023-07-29T13:45:55;2.50;;;2.30;;
2564;SDS011;1292;48.020;7.822;2023-07-29T13:48:22;5.27;;;2.20;;
2564;SDS011;1292;48.020;7.822;2023-07-29T13:50:49;2.13;;;1.47;;
2564;SDS011;1292;48.020;7.822;2023-07-29T13:53:16;2.00;;;1.80;;
2564;SDS011;1292;48.020;7.822;2023-07-29T13:55:43;2.43;;;2.23;;
2564;SDS011;1292;48.020;7.822;2023-07-29T13:58:11;1.70;;;1.60;;
2564;SDS011;1292;48.020;7.822;2023-07-29T14:00:38;4.60;;;2.00;;
2564;SDS011;1292;48.020;7.822;2023-07-29T14:03:05;1.93;;;1.83;;
2564;SDS011;1292;48.020;7.822;2023-07-29T14:05:31;1.90;;;1.63;;
2564;SDS011;1292;48.020;7.822;2023-07-29T14:07:58;2.27;;;2.10;;
2564;SDS011;1292;48.020;7.822;2023-07-29T14:10:25;1.87;;;1.77;;
2564;SDS011;1292;48.020;7.822;2023-07-29T14:12:52;2.40;;;2.20;;
2564;SDS011;1292;48.020;7.822;2023-07-29T14:15:20;2.20;;;2.00;;
2564;SDS011;1292;48.020;7.822;2023-07-29T14:17:47;3.10;;;2.10;;
2564;SDS011;1292;48.020;7.822;2023-07-29T14:20:14;3.20;;;2.00;;
2564;SDS011;1292;48.020;7.822;2023-07-29T14:22:41;2.30;;;2.07;;
2564;SDS011;1292;48.020;7.822;2023-07-29T14:25:08;2.30;;;2.10;;
2564;SDS011;1292;48.020;7.822;2023-07-29T14:27:36;2.47;;;2.27;;
2564;SDS011;1292;48.020;7.822;2023-07-29T14:30:05;2.30;;;2.10;;
2564;SDS011;1292;48.020;7.822;2023-07-29T14:32:34;3.00;;;2.47;;
2564;SDS011;1292;48.020;7.822;2023-07-29T14:35:02;2.87;;;2.20;;
2564;SDS011;1292;48.020;7.822;2023-07-29T14:37:29;3.53;;;2.23;;
2564;SDS011;1292;48.020;7.822;2023-07-29T14:39:57;2.63;;;2.43;;
2564;SDS011;1292;48.020;7.822;2023-07-29T14:42:23;2.40;;;2.20;;
2564;SDS011;1292;48.020;7.822;2023-07-29T14:44:50;2.90;;;2.50;;
2564;SDS011;1292;48.020;7.822;2023-07-29T14:47:17;2.80;;;2.03;;
2564;SDS011;1292;48.020;7.822;2023-07-29T14:49:45;2.80;;;2.60;;
2564;SDS011;1292;48.020;7.822;2023-07-29T14:52:12;3.10;;;2.63;;
2564;SDS011;1292;48.020;7.822;2023-07-29T14:54:39;4.83;;;2.30;;
2564;SDS011;1292;48.020;7.822;2023-07-29T14:57:06;2.80;;;2.27;;
2564;SDS011;1292;48.020;7.822;2023-07-29T14:59:33;3.20;;;2.60;;
2564;SDS011;1292;48.020;7.822;2023-07-29T15:02:00;2.80;;;2.60;;
2564;SDS011;1292;48.020;7.822;2023-07-29T15:04:27;3.83;;;3.17;;
2564;SDS011;1292;48.020;7.822;2023-07-29T15:06:55;2.43;;;2.10;;
2564;SDS011;1292;48.020;7.822;2023-07-29T15:09:23;6.70;;;3.33;;
2564;SDS011;1292;48.020;7.822;2023-07-29T15:11:50;3.20;;;2.53;;
2564;SDS011;1292;48.020;7.822;2023-07-29T15:14:16;4.23;;;2.90;;
2564;SDS011;1292;48.020;7.822;2023-07-29T15:16:43;3.27;;;2.97;;
2564;SDS011;1292;48.020;7.822;2023-07-29T15:19:10;3.00;;;2.80;;
2564;SDS011;1292;48.020;7.822;2023-07-29T15:21:39;2.83;;;2.63;;
2564;SDS011;1292;48.020;7.822;2023-07-29T15:24:07;4.27;;;2.80;;
2564;SDS011;1292;48.020;7.822;2023-07-29T15:26:34;4.83;;;2.90;;
2564;SDS011;1292;48.020;7.822;2023-07-29T15:29:00;4.67;;;2.47;;
2564;SDS011;1292;48.020;7.822;2023-07-29T15:31:28;3.80;;;2.67;;
2564;SDS011;1292;48.020;7.822;2023-07-29T15:33:54;2.63;;;2.43;;
2564;SDS011;1292;48.020;7.822;2023-07-29T15:36:21;3.23;;;2.60;;
2564;SDS011;1292;48.020;7.822;2023-07-29T15:38:48;2.60;;;2.40;;
2564;SDS011;1292;48.020;7.822;2023-07-29T15:41:16;5.70;;;2.63;;
2564;SDS011;1292;48.020;7.822;2023-07-29T15:43:43;2.60;;;2.40;;
2564;SDS011;1292;48.020;7.822;2023-07-29T15:46:10;2.97;;;2.70;;
2564;SDS011;1292;48.020;7.822;2023-07-29T15:48:37;2.60;;;2.33;;
2564;SDS011;1292;48.020;7.822;2023-07-29T15:51:04;2.77;;;2.57;;
2564;SDS011;1292;48.020;7.822;2023-07-29T15:53:30;3.10;;;2.80;;
2564;SDS011;1292;48.020;7.822;2023-07-29T15:55:57;8.43;;;3.20;;
2564;SDS011;1292;48.020;7.822;2023-07-29T15:58:25;2.97;;;2.77;;
2564;SDS011;1292;48.020;7.822;2023-07-29T16:00:52;4.40;;;2.67;;
2564;SDS011;1292;48.020;7.822;2023-07-29T16:03:19;3.10;;;2.70;;
2564;SDS011;1292;48.020;7.822;2023-07-29T16:05:46;3.10;;;2.47;;
2564;SDS011;1292;48.020;7.822;2023-07-29T16:08:13;3.00;;;2.80;;
2564;SDS011;1292;48.020;7.822;2023-07-29T16:10:40;3.60;;;2.83;;
2564;SDS011;1292;48.020;7.822;2023-07-29T16:13:07;3.23;;;3.00;;
2564;SDS011;1292;48.020;7.822;2023-07-29T16:15:35;3.13;;;2.53;;
2564;SDS011;1292;48.020;7.822;2023-07-29T16:18:02;3.30;;;3.00;;
2564;SDS011;1292;48.020;7.822;2023-07-29T16:20:29;3.87;;;3.07;;
2564;SDS011;1292;48.020;7.822;2023-07-29T16:22:55;3.30;;;3.00;;
2564;SDS011;1292;48.020;7.822;2023-07-29T16:25:22;4.00;;;3.20;;
2564;SDS011;1292;48.020;7.822;2023-07-29T16:27:49;2.93;;;2.73;;
2564;SDS011;1292;48.020;7.822;2023-07-29T16:30:16;3.50;;;3.20;;
2564;SDS011;1292;48.020;7.822;2023-07-29T16:32:44;3.10;;;2.80;;
2564;SDS011;1292;48.020;7.822;2023-07-29T16:35:11;3.73;;;3.43;;
2564;SDS011;1292;48.020;7.822;2023-07-29T16:37:38;5.83;;;3.07;;
2564;SDS011;1292;48.020;7.822;2023-07-29T16:40:05;4.60;;;3.87;;
2564;SDS011;1292;48.020;7.822;2023-07-29T16:42:34;3.10;;;2.80;;
2564;SDS011;1292;48.020;7.822;2023-07-29T16:45:01;2.97;;;2.77;;
2564;SDS011;1292;48.020;7.822;2023-07-29T16:47:28;3.43;;;3.23;;
2564;SDS011;1292;48.020;7.822;2023-07-29T16:49:57;3.50;;;3.20;;
2564;SDS011;1292;48.020;7.822;2023-07-29T16:52:26;3.33;;;3.03;;
2564;SDS011;1292;48.020;7.822;2023-07-29T16:54:53;3.00;;;2.80;;
2564;SDS011;1292;48.020;7.822;2023-07-29T16:57:20;6.00;;;4.10;;
2564;SDS011;1292;48.020;7.822;2023-07-29T16:59:47;3.10;;;2.83;;
2564;SDS011;1292;48.020;7.822;2023-07-29T17:02:13;3.07;;;2.83;;
2564;SDS011;1292;48.020;7.822;2023-07-29T17:04:41;3.27;;;2.97;;
2564;SDS011;1292;48.020;7.822;2023-07-29T17:07:09;4.13;;;3.77;;
2564;SDS011;1292;48.020;7.822;2023-07-29T17:09:36;4.03;;;3.63;;
2564;SDS011;1292;48.020;7.822;2023-07-29T17:12:03;5.00;;;3.30;;
2564;SDS011;1292;48.020;7.822;2023-07-29T17:14:30;3.07;;;2.83;;
2564;SDS011;1292;48.020;7.822;2023-07-29T17:16:57;3.33;;;3.03;;
2564;SDS011;1292;48.020;7.822;2023-07-29T17:19:24;3.83;;;3.43;;
2564;SDS011;1292;48.020;7.822;2023-07-29T17:21:51;4.10;;;3.70;;
2564;SDS011;1292;48.020;7.822;2023-07-29T17:24:19;4.10;;;3.70;;
2564;SDS011;1292;48.020;7.822;2023-07-29T17:26:46;8.63;;;2.83;;
2564;SDS011;1292;48.020;7.822;2023-07-29T17:29:12;3.53;;;3.23;;
2564;SDS011;1292;48.020;7.822;2023-07-29T17:31:39;6.13;;;3.97;;
2564;SDS011;1292;48.020;7.822;2023-07-29T17:34:08;3.70;;;3.40;;
2564;SDS011;1292;48.020;7.822;2023-07-29T17:36:35;3.30;;;3.00;;
2564;SDS011;1292;48.020;7.822;2023-07-29T17:39:02;5.83;;;3.80;;
2564;SDS011;1292;48.020;7.822;2023-07-29T17:41:30;6.40;;;3.40;;
2564;SDS011;1292;48.020;7.822;2023-07-29T17:43:56;3.47;;;3.27;;
2564;SDS011;1292;48.020;7.822;2023-07-29T17:46:23;3.00;;;2.60;;
2564;SDS011;1292;48.020;7.822;2023-07-29T17:48:50;3.97;;;3.57;;
2564;SDS011;1292;48.020;7.822;2023-07-29T17:51:17;4.00;;;3.60;;
2564;SDS011;1292;48.020;7.822;2023-07-29T17:53:43;4.37;;;3.47;;
2564;SDS011;1292;48.020;7.822;2023-07-29T17:56:11;4.10;;;3.70;;
2564;SDS011;1292;48.020;7.822;2023-07-29T17:58:40;4.47;;;4.10;;
2564;SDS011;1292;48.020;7.822;2023-07-29T18:01:06;6.80;;;4.33;;
2564;SDS011;1292;48.020;7.822;2023-07-29T18:03:33;6.80;;;4.40;;
2564;SDS011;1292;48.020;7.822;2023-07-29T18:06:00;4.37;;;3.97;;
2564;SDS011;1292;48.020;7.822;2023-07-29T18:08:27;3.60;;;3.30;;
2564;SDS011;1292;48.020;7.822;2023-07-29T18:10:54;3.80;;;3.50;;
2564;SDS011;1292;48.020;7.822;2023-07-29T18:13:21;3.23;;;2.97;;
2564;SDS011;1292;48.020;7.822;2023-07-29T18:15:51;5.03;;;3.60;;
2564;SDS011;1292;48.020;7.822;2023-07-29T18:18:18;3.27;;;3.00;;
2564;SDS011;1292;48.020;7.822;2023-07-29T18:20:47;4.73;;;3.67;;
2564;SDS011;1292;48.020;7.822;2023-07-29T18:23:14;3.80;;;3.40;;
2564;SDS011;1292;48.020;7.822;2023-07-29T18:25:41;3.80;;;3.50;;
2564;SDS011;1292;48.020;7.822;2023-07-29T18:28:08;3.80;;;3.50;;
2564;SDS011;1292;48.020;7.822;2023-07-29T18:30:35;3.13;;;2.83;;
2564;SDS011;1292;48.020;7.822;2023-07-29T18:33:04;4.10;;;3.73;;
2564;SDS011;1292;48.020;7.822;2023-07-29T18:35:32;3.90;;;3.57;;
2564;SDS011;1292;48.020;7.822;2023-07-29T18:37:59;3.07;;;2.87;;
2564;SDS011;1292;48.020;7.822;2023-07-29T18:40:26;3.03;;;2.83;;
2564;SDS011;1292;48.020;7.822;2023-07-29T18:42:53;4.00;;;3.67;;
2564;SDS011;1292;48.020;7.822;2023-07-29T18:45:20;3.33;;;3.03;;
2564;SDS011;1292;48.020;7.822;2023-07-29T18:47:47;4.27;;;3.10;;
2564;SDS011;1292;48.020;7.822;2023-07-29T18:50:16;3.40;;;3.10;;
2564;SDS011;1292;48.020;7.822;2023-07-29T18:52:43;3.57;;;3.13;;
2564;SDS011;1292;48.020;7.822;2023-07-29T18:55:10;4.20;;;3.00;;
2564;SDS011;1292;48.020;7.822;2023-07-29T18:57:36;5.43;;;3.10;;
2564;SDS011;1292;48.020;7.822;2023-07-29T19:00:04;4.73;;;2.90;;
2564;SDS011;1292;48.020;7.822;2023-07-29T19:02:32;3.00;;;2.70;;
2564;SDS011;1292;48.020;7.822;2023-07-29T19:04:58;4.37;;;3.17;;
2564;SDS011;1292;48.020;7.822;2023-07-29T19:07:27;2.70;;;2.50;;
2564;SDS011;1292;48.020;7.822;2023-07-29T19:09:57;4.50;;;3.50;;
2564;SDS011;1292;48.020;7.822;2023-07-29T19:12:24;2.90;;;2.60;;
2564;SDS011;1292;48.020;7.822;2023-07-29T19:14:51;3.00;;;2.80;;
2564;SDS011;1292;48.020;7.822;2023-07-29T19:17:18;3.20;;;2.90;;
2564;SDS011;1292;48.020;7.822;2023-07-29T19:19:45;2.73;;;2.53;;
2564;SDS011;1292;48.020;7.822;2023-07-29T19:22:12;3.27;;;2.97;;
2564;SDS011;1292;48.020;7.822;2023-07-29T19:24:40;3.50;;;2.93;;
2564;SDS011;1292;48.020;7.822;2023-07-29T19:27:07;2.67;;;2.23;;
2564;SDS011;1292;48.020;7.822;2023-07-29T19:29:34;3.37;;;2.70;;
2564;SDS011;1292;48.020;7.822;2023-07-29T19:32:01;2.50;;;2.20;;
2564;SDS011;1292;48.020;7.822;2023-07-29T19:34:28;2.87;;;2.67;;
2564;SDS011;1292;48.020;7.822;2023-07-29T19:36:53;2.60;;;2.40;;
2564;SDS011;1292;48.020;7.822;2023-07-29T19:39:20;3.20;;;2.90;;
2564;SDS011;1292;48.020;7.822;2023-07-29T19:41:49;3.27;;;2.97;;
2564;SDS011;1292;48.020;7.822;2023-07-29T19:44:15;3.00;;;2.80;;
2564;SDS011;1292;48.020;7.822;2023-07-29T19:46:43;3.13;;;2.83;;
2564;SDS011;1292;48.020;7.822;2023-07-29T19:49:09;2.80;;;2.60;;
2564;SDS011;1292;48.020;7.822;2023-07-29T19:51:36;3.57;;;2.70;;
2564;SDS011;1292;48.020;7.822;2023-07-29T19:54:03;2.50;;;2.30;;
2564;SDS011;1292;48.020;7.822;2023-07-29T19:56:30;2.83;;;2.63;;
2564;SDS011;1292;48.020;7.822;2023-07-29T19:58:59;3.20;;;2.90;;
2564;SDS011;1292;48.020;7.822;2023-07-29T20:01:25;2.70;;;2.50;;
2564;SDS011;1292;48.020;7.822;2023-07-29T20:03:52;2.77;;;2.57;;
2564;SDS011;1292;48.020;7.822;2023-07-29T20:06:19;2.90;;;2.70;;
2564;SDS011;1292;48.020;7.822;2023-07-29T20:08:46;2.53;;;2.33;;
2564;SDS011;1292;48.020;7.822;2023-07-29T20:11:13;2.40;;;2.20;;
2564;SDS011;1292;48.020;7.822;2023-07-29T20:13:40;4.30;;;2.50;;
2564;SDS011;1292;48.020;7.822;2023-07-29T20:16:08;2.20;;;1.80;;
2564;SDS011;1292;48.020;7.822;2023-07-29T20:18:35;2.63;;;2.43;;
2564;SDS011;1292;48.020;7.822;2023-07-29T20:21:02;2.43;;;2.27;;
2564;SDS011;1292;48.020;7.822;2023-07-29T20:23:28;2.73;;;2.53;;
2564;SDS011;1292;48.020;7.822;2023-07-29T20:25:55;2.10;;;2.00;;
2564;SDS011;1292;48.020;7.822;2023-07-29T20:28:22;2.90;;;2.70;;
2564;SDS011;1292;48.020;7.822;2023-07-29T20:30:55;3.20;;;3.00;;
2564;SDS011;1292;48.020;7.822;2023-07-29T20:33:23;3.10;;;2.80;;
2564;SDS011;1292;48.020;7.822;2023-07-29T20:35:54;2.80;;;2.43;;
2564;SDS011;1292;48.020;7.822;2023-07-29T20:38:21;3.03;;;2.83;;
2564;SDS011;1292;48.020;7.822;2023-07-29T20:40:49;2.83;;;2.30;;
2564;SDS011;1292;48.020;7.822;2023-07-29T20:43:16;2.60;;;2.00;;
2564;SDS011;1292;48.020;7.822;2023-07-29T20:45:43;4.13;;;2.50;;
2564;SDS011;1292;48.020;7.822;2023-07-29T20:48:10;2.10;;;1.90;;
2564;SDS011;1292;48.020;7.822;2023-07-29T20:50:39;3.80;;;1.93;;
2564;SDS011;1292;48.020;7.822;2023-07-29T20:53:07;3.20;;;2.90;;
2564;SDS011;1292;48.020;7.822;2023-07-29T20:55:34;4.90;;;2.50;;
2564;SDS011;1292;48.020;7.822;2023-07-29T20:58:01;2.40;;;2.20;;
2564;SDS011;1292;48.020;7.822;2023-07-29T21:00:28;2.10;;;1.93;;
2564;SDS011;1292;48.020;7.822;2023-07-29T21:02:55;2.53;;;2.33;;
2564;SDS011;1292;48.020;7.822;2023-07-29T21:05:22;2.50;;;2.30;;
2564;SDS011;1292;48.020;7.822;2023-07-29T21:07:51;2.20;;;1.90;;
2564;SDS011;1292;48.020;7.822;2023-07-29T21:10:18;2.30;;;2.10;;